sensor_id;sensor_type;location;lat;lon;timestamp;P1;durP1;ratioP1;P2;durP2;ratioP2
76063;SDS011;64762;52.006;8.424;2023-07-09T00:01:54;12.23;;;6.05;;
76063;SDS011;64762;52.006;8.424;2023-07-09T00:04:20;10.13;;;5.63;;
76063;SDS011;64762;52.006;8.424;2023-07-09T00:06:45;9.75;;;5.28;;
76063;SDS011;64762;52.006;8.424;2023-07-09T00:09:12;10.05;;;5.40;;
76063;SDS011;64762;52.006;8.424;2023-07-09T00:11:42;9.13;;;5.30;;
76063;SDS011;64762;52.006;8.424;2023-07-09T00:14:09;10.02;;;5.75;;
76063;SDS011;64762;52.006;8.424;2023-07-09T00:16:35;9.73;;;5.55;;
76063;SDS011;64762;52.006;8.424;2023-07-09T00:19:02;10.43;;;5.38;;
76063;SDS011;64762;52.006;8.424;2023-07-09T00:21:28;10.63;;;5.72;;
76063;SDS011;64762;52.006;8.424;2023-07-09T00:23:58;11.77;;;5.65;;
76063;SDS011;64762;52.006;8.424;2023-07-09T00:26:30;10.15;;;6.40;;
76063;SDS011;64762;52.006;8.424;2023-07-09T00:28:56;14.38;;;7.05;;
76063;SDS011;64762;52.006;8.424;2023-07-09T00:31:22;14.20;;;7.53;;
76063;SDS011;64762;52.006;8.424;2023-07-09T00:33:48;15.15;;;6.93;;
76063;SDS011;64762;52.006;8.424;2023-07-09T00:36:18;11.73;;;6.10;;
76063;SDS011;64762;52.006;8.424;2023-07-09T00:38:48;15.80;;;6.32;;
76063;SDS011;64762;52.006;8.424;2023-07-09T00:41:19;14.77;;;7.50;;
76063;SDS011;64762;52.006;8.424;2023-07-09T00:43:46;15.13;;;6.63;;
76063;SDS011;64762;52.006;8.424;2023-07-09T00:48:44;15.63;;;6.50;;
76063;SDS011;64762;52.006;8.424;2023-07-09T00:51:14;9.25;;;6.10;;
76063;SDS011;64762;52.006;8.424;2023-07-09T00:53:41;9.45;;;5.80;;
76063;SDS011;64762;52.006;8.424;2023-07-09T00:56:10;8.38;;;5.43;;
76063;SDS011;64762;52.006;8.424;2023-07-09T00:58:39;8.52;;;5.18;;
76063;SDS011;64762;52.006;8.424;2023-07-09T01:01:06;11.98;;;5.85;;
76063;SDS011;64762;52.006;8.424;2023-07-09T01:03:40;11.05;;;6.15;;
76063;SDS011;64762;52.006;8.424;2023-07-09T01:06:07;12.52;;;5.80;;
76063;SDS011;64762;52.006;8.424;2023-07-09T01:08:34;12.05;;;5.93;;
76063;SDS011;64762;52.006;8.424;2023-07-09T01:11:00;11.05;;;5.60;;
76063;SDS011;64762;52.006;8.424;2023-07-09T01:13:26;9.32;;;5.60;;
76063;SDS011;64762;52.006;8.424;2023-07-09T01:15:53;7.70;;;4.45;;
76063;SDS011;64762;52.006;8.424;2023-07-09T01:18:18;8.10;;;4.72;;
76063;SDS011;64762;52.006;8.424;2023-07-09T01:20:43;9.10;;;4.97;;
76063;SDS011;64762;52.006;8.424;2023-07-09T01:23:09;12.35;;;5.65;;
76063;SDS011;64762;52.006;8.424;2023-07-09T01:25:43;11.20;;;6.00;;
76063;SDS011;64762;52.006;8.424;2023-07-09T01:28:10;8.32;;;5.53;;
76063;SDS011;64762;52.006;8.424;2023-07-09T01:30:36;9.95;;;5.45;;
76063;SDS011;64762;52.006;8.424;2023-07-09T01:33:03;10.68;;;5.72;;
76063;SDS011;64762;52.006;8.424;2023-07-09T01:35:29;10.80;;;5.47;;
76063;SDS011;64762;52.006;8.424;2023-07-09T01:37:55;10.48;;;5.80;;
76063;SDS011;64762;52.006;8.424;2023-07-09T01:40:21;11.32;;;5.45;;
76063;SDS011;64762;52.006;8.424;2023-07-09T01:42:48;9.07;;;5.10;;
76063;SDS011;64762;52.006;8.424;2023-07-09T01:45:14;9.57;;;5.95;;
76063;SDS011;64762;52.006;8.424;2023-07-09T01:47:40;10.23;;;5.13;;
76063;SDS011;64762;52.006;8.424;2023-07-09T01:50:06;9.68;;;5.40;;
76063;SDS011;64762;52.006;8.424;2023-07-09T01:52:32;9.32;;;5.30;;
76063;SDS011;64762;52.006;8.424;2023-07-09T01:54:58;11.18;;;5.47;;
76063;SDS011;64762;52.006;8.424;2023-07-09T01:57:25;11.90;;;5.83;;
76063;SDS011;64762;52.006;8.424;2023-07-09T01:59:57;9.68;;;5.10;;
76063;SDS011;64762;52.006;8.424;2023-07-09T02:02:24;9.73;;;6.13;;
76063;SDS011;64762;52.006;8.424;2023-07-09T02:04:51;9.63;;;5.32;;
76063;SDS011;64762;52.006;8.424;2023-07-09T02:07:17;9.48;;;5.30;;
76063;SDS011;64762;52.006;8.424;2023-07-09T02:09:43;10.30;;;6.05;;
76063;SDS011;64762;52.006;8.424;2023-07-09T02:12:09;11.45;;;5.65;;
76063;SDS011;64762;52.006;8.424;2023-07-09T02:14:35;8.45;;;5.68;;
76063;SDS011;64762;52.006;8.424;2023-07-09T02:17:01;10.27;;;5.15;;
76063;SDS011;64762;52.006;8.424;2023-07-09T02:19:27;10.00;;;5.97;;
76063;SDS011;64762;52.006;8.424;2023-07-09T02:21:53;12.23;;;5.65;;
76063;SDS011;64762;52.006;8.424;2023-07-09T02:24:19;9.87;;;5.77;;
76063;SDS011;64762;52.006;8.424;2023-07-09T02:26:44;10.73;;;5.87;;
76063;SDS011;64762;52.006;8.424;2023-07-09T02:29:10;8.65;;;5.18;;
76063;SDS011;64762;52.006;8.424;2023-07-09T02:31:35;9.77;;;5.83;;
76063;SDS011;64762;52.006;8.424;2023-07-09T02:34:00;12.07;;;6.23;;
76063;SDS011;64762;52.006;8.424;2023-07-09T02:36:27;9.05;;;6.00;;
76063;SDS011;64762;52.006;8.424;2023-07-09T02:38:53;10.83;;;6.03;;
76063;SDS011;64762;52.006;8.424;2023-07-09T02:41:18;10.40;;;5.30;;
76063;SDS011;64762;52.006;8.424;2023-07-09T02:43:43;9.90;;;5.57;;
76063;SDS011;64762;52.006;8.424;2023-07-09T02:46:09;10.87;;;5.77;;
76063;SDS011;64762;52.006;8.424;2023-07-09T02:48:34;9.10;;;5.23;;
76063;SDS011;64762;52.006;8.424;2023-07-09T02:50:59;10.40;;;6.03;;
76063;SDS011;64762;52.006;8.424;2023-07-09T02:53:25;10.57;;;6.00;;
76063;SDS011;64762;52.006;8.424;2023-07-09T02:55:52;10.00;;;5.43;;
76063;SDS011;64762;52.006;8.424;2023-07-09T02:58:17;9.77;;;6.05;;
76063;SDS011;64762;52.006;8.424;2023-07-09T03:00:43;12.13;;;6.00;;
76063;SDS011;64762;52.006;8.424;2023-07-09T03:03:08;10.37;;;5.83;;
76063;SDS011;64762;52.006;8.424;2023-07-09T03:05:33;10.67;;;5.93;;
76063;SDS011;64762;52.006;8.424;2023-07-09T03:07:59;9.38;;;5.50;;
76063;SDS011;64762;52.006;8.424;2023-07-09T03:10:24;11.57;;;6.03;;
76063;SDS011;64762;52.006;8.424;2023-07-09T03:12:49;10.40;;;5.90;;
76063;SDS011;64762;52.006;8.424;2023-07-09T03:15:15;11.23;;;6.20;;
76063;SDS011;64762;52.006;8.424;2023-07-09T03:17:40;12.77;;;6.30;;
76063;SDS011;64762;52.006;8.424;2023-07-09T03:20:05;12.03;;;6.03;;
76063;SDS011;64762;52.006;8.424;2023-07-09T03:22:32;10.98;;;5.90;;
76063;SDS011;64762;52.006;8.424;2023-07-09T03:24:58;10.35;;;6.35;;
76063;SDS011;64762;52.006;8.424;2023-07-09T03:27:23;8.80;;;5.50;;
76063;SDS011;64762;52.006;8.424;2023-07-09T03:29:48;11.50;;;6.67;;
76063;SDS011;64762;52.006;8.424;2023-07-09T03:32:14;11.77;;;6.27;;
76063;SDS011;64762;52.006;8.424;2023-07-09T03:34:39;10.30;;;5.97;;
76063;SDS011;64762;52.006;8.424;2023-07-09T03:37:04;13.70;;;6.90;;
76063;SDS011;64762;52.006;8.424;2023-07-09T03:39:29;12.53;;;6.50;;
76063;SDS011;64762;52.006;8.424;2023-07-09T03:41:55;10.40;;;6.30;;
76063;SDS011;64762;52.006;8.424;2023-07-09T03:44:20;9.10;;;6.07;;
76063;SDS011;64762;52.006;8.424;2023-07-09T03:46:45;13.20;;;6.57;;
76063;SDS011;64762;52.006;8.424;2023-07-09T03:49:11;15.10;;;7.17;;
76063;SDS011;64762;52.006;8.424;2023-07-09T03:51:36;10.30;;;5.93;;
76063;SDS011;64762;52.006;8.424;2023-07-09T03:54:01;10.27;;;6.37;;
76063;SDS011;64762;52.006;8.424;2023-07-09T03:56:27;11.13;;;6.13;;
76063;SDS011;64762;52.006;8.424;2023-07-09T03:58:52;19.27;;;7.33;;
76063;SDS011;64762;52.006;8.424;2023-07-09T04:01:17;13.57;;;6.57;;
76063;SDS011;64762;52.006;8.424;2023-07-09T04:03:43;11.43;;;6.70;;
76063;SDS011;64762;52.006;8.424;2023-07-09T04:06:08;11.20;;;6.37;;
76063;SDS011;64762;52.006;8.424;2023-07-09T04:08:33;11.27;;;6.17;;
76063;SDS011;64762;52.006;8.424;2023-07-09T04:10:59;9.93;;;5.57;;
76063;SDS011;64762;52.006;8.424;2023-07-09T04:13:25;9.93;;;5.60;;
76063;SDS011;64762;52.006;8.424;2023-07-09T04:15:52;12.25;;;6.57;;
76063;SDS011;64762;52.006;8.424;2023-07-09T04:18:18;10.77;;;6.63;;
76063;SDS011;64762;52.006;8.424;2023-07-09T04:20:47;15.10;;;6.27;;
76063;SDS011;64762;52.006;8.424;2023-07-09T04:23:14;10.82;;;6.15;;
76063;SDS011;64762;52.006;8.424;2023-07-09T04:25:39;12.60;;;5.80;;
76063;SDS011;64762;52.006;8.424;2023-07-09T04:28:05;11.43;;;6.00;;
76063;SDS011;64762;52.006;8.424;2023-07-09T04:30:30;10.30;;;6.30;;
76063;SDS011;64762;52.006;8.424;2023-07-09T04:32:56;9.47;;;6.33;;
76063;SDS011;64762;52.006;8.424;2023-07-09T04:35:21;11.43;;;6.07;;
76063;SDS011;64762;52.006;8.424;2023-07-09T04:37:47;8.77;;;5.73;;
76063;SDS011;64762;52.006;8.424;2023-07-09T04:40:13;10.10;;;6.05;;
76063;SDS011;64762;52.006;8.424;2023-07-09T04:42:38;10.32;;;6.20;;
76063;SDS011;64762;52.006;8.424;2023-07-09T04:45:04;9.88;;;5.85;;
76063;SDS011;64762;52.006;8.424;2023-07-09T04:47:30;10.77;;;6.15;;
76063;SDS011;64762;52.006;8.424;2023-07-09T04:49:56;10.07;;;5.87;;
76063;SDS011;64762;52.006;8.424;2023-07-09T04:52:21;11.23;;;6.73;;
76063;SDS011;64762;52.006;8.424;2023-07-09T04:54:47;14.65;;;6.70;;
76063;SDS011;64762;52.006;8.424;2023-07-09T04:57:12;12.23;;;5.80;;
76063;SDS011;64762;52.006;8.424;2023-07-09T04:59:37;10.87;;;5.83;;
76063;SDS011;64762;52.006;8.424;2023-07-09T05:02:03;9.93;;;6.50;;
76063;SDS011;64762;52.006;8.424;2023-07-09T05:04:29;11.68;;;6.13;;
76063;SDS011;64762;52.006;8.424;2023-07-09T05:06:54;21.40;;;8.45;;
76063;SDS011;64762;52.006;8.424;2023-07-09T05:09:20;12.37;;;6.67;;
76063;SDS011;64762;52.006;8.424;2023-07-09T05:11:45;9.80;;;5.57;;
76063;SDS011;64762;52.006;8.424;2023-07-09T05:14:11;10.88;;;6.10;;
76063;SDS011;64762;52.006;8.424;2023-07-09T05:16:36;13.30;;;6.50;;
76063;SDS011;64762;52.006;8.424;2023-07-09T05:19:01;12.70;;;7.03;;
76063;SDS011;64762;52.006;8.424;2023-07-09T05:21:26;10.37;;;5.90;;
76063;SDS011;64762;52.006;8.424;2023-07-09T05:23:52;11.40;;;7.05;;
76063;SDS011;64762;52.006;8.424;2023-07-09T05:26:17;11.23;;;6.53;;
76063;SDS011;64762;52.006;8.424;2023-07-09T05:28:43;12.07;;;7.27;;
76063;SDS011;64762;52.006;8.424;2023-07-09T05:31:08;10.60;;;5.87;;
76063;SDS011;64762;52.006;8.424;2023-07-09T05:33:33;11.47;;;6.43;;
76063;SDS011;64762;52.006;8.424;2023-07-09T05:35:59;7.93;;;5.17;;
76063;SDS011;64762;52.006;8.424;2023-07-09T05:38:24;13.63;;;6.67;;
76063;SDS011;64762;52.006;8.424;2023-07-09T05:40:57;11.77;;;6.87;;
76063;SDS011;64762;52.006;8.424;2023-07-09T05:43:24;14.13;;;6.53;;
76063;SDS011;64762;52.006;8.424;2023-07-09T05:45:49;9.87;;;6.10;;
76063;SDS011;64762;52.006;8.424;2023-07-09T05:48:15;9.90;;;7.03;;
76063;SDS011;64762;52.006;8.424;2023-07-09T05:50:40;10.10;;;6.53;;
76063;SDS011;64762;52.006;8.424;2023-07-09T05:53:05;12.60;;;6.13;;
76063;SDS011;64762;52.006;8.424;2023-07-09T05:55:31;12.45;;;6.22;;
76063;SDS011;64762;52.006;8.424;2023-07-09T05:57:57;10.18;;;6.32;;
76063;SDS011;64762;52.006;8.424;2023-07-09T06:00:22;11.33;;;6.57;;
76063;SDS011;64762;52.006;8.424;2023-07-09T06:02:47;11.93;;;6.97;;
76063;SDS011;64762;52.006;8.424;2023-07-09T06:05:13;9.73;;;6.40;;
76063;SDS011;64762;52.006;8.424;2023-07-09T06:07:39;11.68;;;6.82;;
76063;SDS011;64762;52.006;8.424;2023-07-09T06:10:05;12.00;;;7.10;;
76063;SDS011;64762;52.006;8.424;2023-07-09T06:12:31;20.75;;;6.95;;
76063;SDS011;64762;52.006;8.424;2023-07-09T06:14:56;10.87;;;6.30;;
76063;SDS011;64762;52.006;8.424;2023-07-09T06:17:21;10.33;;;6.20;;
76063;SDS011;64762;52.006;8.424;2023-07-09T06:19:47;13.00;;;6.43;;
76063;SDS011;64762;52.006;8.424;2023-07-09T06:22:12;10.30;;;6.50;;
76063;SDS011;64762;52.006;8.424;2023-07-09T06:24:37;10.73;;;7.03;;
76063;SDS011;64762;52.006;8.424;2023-07-09T06:27:02;10.07;;;6.43;;
76063;SDS011;64762;52.006;8.424;2023-07-09T06:29:28;11.17;;;6.27;;
76063;SDS011;64762;52.006;8.424;2023-07-09T06:31:53;11.93;;;6.60;;
76063;SDS011;64762;52.006;8.424;2023-07-09T06:34:18;13.93;;;6.20;;
76063;SDS011;64762;52.006;8.424;2023-07-09T06:36:44;8.83;;;6.17;;
76063;SDS011;64762;52.006;8.424;2023-07-09T06:39:09;10.73;;;6.50;;
76063;SDS011;64762;52.006;8.424;2023-07-09T06:41:35;11.83;;;6.83;;
76063;SDS011;64762;52.006;8.424;2023-07-09T06:44:06;11.95;;;6.82;;
76063;SDS011;64762;52.006;8.424;2023-07-09T06:46:32;12.93;;;6.95;;
76063;SDS011;64762;52.006;8.424;2023-07-09T06:48:58;11.85;;;6.30;;
76063;SDS011;64762;52.006;8.424;2023-07-09T06:51:24;12.70;;;6.05;;
76063;SDS011;64762;52.006;8.424;2023-07-09T06:53:49;11.80;;;6.80;;
76063;SDS011;64762;52.006;8.424;2023-07-09T06:56:16;9.88;;;6.70;;
76063;SDS011;64762;52.006;8.424;2023-07-09T06:58:42;8.90;;;5.70;;
76063;SDS011;64762;52.006;8.424;2023-07-09T07:01:07;10.50;;;6.17;;
76063;SDS011;64762;52.006;8.424;2023-07-09T07:03:34;12.50;;;6.07;;
76063;SDS011;64762;52.006;8.424;2023-07-09T07:06:00;10.83;;;6.60;;
76063;SDS011;64762;52.006;8.424;2023-07-09T07:08:26;13.32;;;6.68;;
76063;SDS011;64762;52.006;8.424;2023-07-09T07:10:55;13.93;;;6.23;;
76063;SDS011;64762;52.006;8.424;2023-07-09T07:13:45;11.93;;;5.95;;
76063;SDS011;64762;52.006;8.424;2023-07-09T07:16:11;11.05;;;6.32;;
76063;SDS011;64762;52.006;8.424;2023-07-09T07:18:37;9.13;;;5.90;;
76063;SDS011;64762;52.006;8.424;2023-07-09T07:21:03;10.77;;;6.43;;
76063;SDS011;64762;52.006;8.424;2023-07-09T07:23:29;11.02;;;6.82;;
76063;SDS011;64762;52.006;8.424;2023-07-09T07:25:54;13.55;;;6.70;;
76063;SDS011;64762;52.006;8.424;2023-07-09T07:28:20;12.88;;;6.45;;
76063;SDS011;64762;52.006;8.424;2023-07-09T07:30:45;12.82;;;6.78;;
76063;SDS011;64762;52.006;8.424;2023-07-09T07:33:12;13.13;;;5.57;;
76063;SDS011;64762;52.006;8.424;2023-07-09T07:35:38;8.80;;;5.80;;
76063;SDS011;64762;52.006;8.424;2023-07-09T07:38:04;11.93;;;6.20;;
76063;SDS011;64762;52.006;8.424;2023-07-09T07:40:29;12.53;;;6.20;;
76063;SDS011;64762;52.006;8.424;2023-07-09T07:42:54;13.87;;;6.07;;
76063;SDS011;64762;52.006;8.424;2023-07-09T07:45:20;12.73;;;6.40;;
76063;SDS011;64762;52.006;8.424;2023-07-09T07:47:45;14.85;;;6.63;;
76063;SDS011;64762;52.006;8.424;2023-07-09T07:50:10;8.97;;;5.90;;
76063;SDS011;64762;52.006;8.424;2023-07-09T07:52:36;12.50;;;6.40;;
76063;SDS011;64762;52.006;8.424;2023-07-09T07:55:03;13.82;;;7.47;;
76063;SDS011;64762;52.006;8.424;2023-07-09T07:57:32;13.57;;;6.22;;
76063;SDS011;64762;52.006;8.424;2023-07-09T07:59:57;11.43;;;6.60;;
76063;SDS011;64762;52.006;8.424;2023-07-09T08:02:23;11.47;;;6.77;;
76063;SDS011;64762;52.006;8.424;2023-07-09T08:04:48;11.18;;;6.32;;
76063;SDS011;64762;52.006;8.424;2023-07-09T08:07:15;11.43;;;6.28;;
76063;SDS011;64762;52.006;8.424;2023-07-09T08:09:41;12.50;;;6.50;;
76063;SDS011;64762;52.006;8.424;2023-07-09T08:12:06;13.03;;;5.80;;
76063;SDS011;64762;52.006;8.424;2023-07-09T08:14:36;10.73;;;6.22;;
76063;SDS011;64762;52.006;8.424;2023-07-09T08:17:02;11.23;;;5.75;;
76063;SDS011;64762;52.006;8.424;2023-07-09T08:19:27;12.70;;;6.35;;
76063;SDS011;64762;52.006;8.424;2023-07-09T08:21:53;9.93;;;5.83;;
76063;SDS011;64762;52.006;8.424;2023-07-09T08:24:18;14.47;;;6.43;;
76063;SDS011;64762;52.006;8.424;2023-07-09T08:26:43;14.67;;;6.17;;
76063;SDS011;64762;52.006;8.424;2023-07-09T08:29:09;13.37;;;6.73;;
76063;SDS011;64762;52.006;8.424;2023-07-09T08:31:34;11.60;;;6.50;;
76063;SDS011;64762;52.006;8.424;2023-07-09T08:33:59;10.57;;;6.40;;
76063;SDS011;64762;52.006;8.424;2023-07-09T08:36:25;11.43;;;5.97;;
76063;SDS011;64762;52.006;8.424;2023-07-09T08:38:50;11.65;;;6.20;;
76063;SDS011;64762;52.006;8.424;2023-07-09T08:44:11;10.32;;;6.07;;
76063;SDS011;64762;52.006;8.424;2023-07-09T08:46:54;10.38;;;6.45;;
76063;SDS011;64762;52.006;8.424;2023-07-09T08:49:35;10.85;;;5.70;;
76063;SDS011;64762;52.006;8.424;2023-07-09T08:54:55;12.80;;;6.63;;
76063;SDS011;64762;52.006;8.424;2023-07-09T08:57:22;11.07;;;5.82;;
76063;SDS011;64762;52.006;8.424;2023-07-09T08:59:55;12.13;;;6.60;;
76063;SDS011;64762;52.006;8.424;2023-07-09T09:02:59;12.88;;;6.80;;
76063;SDS011;64762;52.006;8.424;2023-07-09T09:05:19;13.02;;;6.57;;
76063;SDS011;64762;52.006;8.424;2023-07-09T09:07:45;12.05;;;6.43;;
76063;SDS011;64762;52.006;8.424;2023-07-09T09:10:17;11.13;;;6.75;;
76063;SDS011;64762;52.006;8.424;2023-07-09T09:13:05;13.02;;;7.28;;
76063;SDS011;64762;52.006;8.424;2023-07-09T09:15:34;11.93;;;6.78;;
76063;SDS011;64762;52.006;8.424;2023-07-09T09:20:42;12.57;;;6.85;;
76063;SDS011;64762;52.006;8.424;2023-07-09T09:23:12;13.73;;;6.63;;
76063;SDS011;64762;52.006;8.424;2023-07-09T09:25:40;14.05;;;7.25;;
76063;SDS011;64762;52.006;8.424;2023-07-09T09:28:07;13.70;;;6.35;;
76063;SDS011;64762;52.006;8.424;2023-07-09T09:30:32;11.30;;;5.35;;
76063;SDS011;64762;52.006;8.424;2023-07-09T09:32:58;10.60;;;6.13;;
76063;SDS011;64762;52.006;8.424;2023-07-09T09:35:32;14.00;;;6.45;;
76063;SDS011;64762;52.006;8.424;2023-07-09T09:38:08;11.88;;;6.30;;
76063;SDS011;64762;52.006;8.424;2023-07-09T09:43:09;11.02;;;5.38;;
76063;SDS011;64762;52.006;8.424;2023-07-09T09:45:39;9.45;;;5.25;;
76063;SDS011;64762;52.006;8.424;2023-07-09T09:48:14;12.73;;;6.05;;
76063;SDS011;64762;52.006;8.424;2023-07-09T09:50:44;11.70;;;5.68;;
76063;SDS011;64762;52.006;8.424;2023-07-09T09:53:11;13.68;;;5.88;;
76063;SDS011;64762;52.006;8.424;2023-07-09T09:55:43;12.70;;;6.03;;
76063;SDS011;64762;52.006;8.424;2023-07-09T09:58:10;11.75;;;6.18;;
76063;SDS011;64762;52.006;8.424;2023-07-09T10:00:37;14.45;;;6.30;;
76063;SDS011;64762;52.006;8.424;2023-07-09T10:03:03;10.93;;;5.95;;
76063;SDS011;64762;52.006;8.424;2023-07-09T10:05:32;11.80;;;7.03;;
76063;SDS011;64762;52.006;8.424;2023-07-09T10:08:05;10.30;;;6.28;;
76063;SDS011;64762;52.006;8.424;2023-07-09T10:10:52;10.43;;;6.50;;
76063;SDS011;64762;52.006;8.424;2023-07-09T10:13:25;15.82;;;7.15;;
76063;SDS011;64762;52.006;8.424;2023-07-09T10:19:21;9.60;;;5.82;;
76063;SDS011;64762;52.006;8.424;2023-07-09T10:27:12;11.40;;;6.55;;
76063;SDS011;64762;52.006;8.424;2023-07-09T10:32:18;11.80;;;6.35;;
76063;SDS011;64762;52.006;8.424;2023-07-09T10:34:53;13.82;;;6.63;;
76063;SDS011;64762;52.006;8.424;2023-07-09T10:39:53;12.63;;;7.25;;
76063;SDS011;64762;52.006;8.424;2023-07-09T10:42:32;12.57;;;7.03;;
76063;SDS011;64762;52.006;8.424;2023-07-09T10:45:10;13.50;;;7.90;;
76063;SDS011;64762;52.006;8.424;2023-07-09T10:47:44;13.20;;;7.47;;
76063;SDS011;64762;52.006;8.424;2023-07-09T10:50:29;11.52;;;6.65;;
76063;SDS011;64762;52.006;8.424;2023-07-09T10:53:14;13.32;;;6.13;;
76063;SDS011;64762;52.006;8.424;2023-07-09T10:55:43;12.50;;;7.45;;
76063;SDS011;64762;52.006;8.424;2023-07-09T10:58:24;13.68;;;7.45;;
76063;SDS011;64762;52.006;8.424;2023-07-09T11:01:11;12.07;;;6.90;;
76063;SDS011;64762;52.006;8.424;2023-07-09T11:09:05;17.92;;;7.20;;
76063;SDS011;64762;52.006;8.424;2023-07-09T11:11:40;14.73;;;7.32;;
76063;SDS011;64762;52.006;8.424;2023-07-09T11:14:19;13.35;;;6.88;;
76063;SDS011;64762;52.006;8.424;2023-07-09T11:16:51;11.88;;;6.75;;
76063;SDS011;64762;52.006;8.424;2023-07-09T11:19:18;12.57;;;6.78;;
76063;SDS011;64762;52.006;8.424;2023-07-09T11:24:45;10.43;;;6.28;;
76063;SDS011;64762;52.006;8.424;2023-07-09T11:27:22;12.20;;;6.35;;
76063;SDS011;64762;52.006;8.424;2023-07-09T11:30:00;11.38;;;5.95;;
76063;SDS011;64762;52.006;8.424;2023-07-09T11:32:28;14.75;;;6.20;;
76063;SDS011;64762;52.006;8.424;2023-07-09T11:34:54;11.50;;;6.30;;
76063;SDS011;64762;52.006;8.424;2023-07-09T11:37:20;15.77;;;7.28;;
76063;SDS011;64762;52.006;8.424;2023-07-09T11:39:50;11.38;;;6.57;;
76063;SDS011;64762;52.006;8.424;2023-07-09T11:44:54;14.63;;;6.55;;
76063;SDS011;64762;52.006;8.424;2023-07-09T11:50:27;11.50;;;5.68;;
76063;SDS011;64762;52.006;8.424;2023-07-09T11:52:56;11.45;;;5.93;;
76063;SDS011;64762;52.006;8.424;2023-07-09T11:55:40;14.18;;;6.55;;
76063;SDS011;64762;52.006;8.424;2023-07-09T11:58:08;15.02;;;6.35;;
76063;SDS011;64762;52.006;8.424;2023-07-09T12:00:37;12.98;;;6.68;;
76063;SDS011;64762;52.006;8.424;2023-07-09T12:03:04;13.52;;;6.88;;
76063;SDS011;64762;52.006;8.424;2023-07-09T12:05:30;11.27;;;6.65;;
76063;SDS011;64762;52.006;8.424;2023-07-09T12:07:56;14.57;;;6.90;;
76063;SDS011;64762;52.006;8.424;2023-07-09T12:10:23;15.00;;;6.65;;
76063;SDS011;64762;52.006;8.424;2023-07-09T12:12:53;10.65;;;5.95;;
76063;SDS011;64762;52.006;8.424;2023-07-09T12:15:23;10.23;;;5.57;;
76063;SDS011;64762;52.006;8.424;2023-07-09T12:17:57;16.30;;;6.63;;
76063;SDS011;64762;52.006;8.424;2023-07-09T12:20:24;16.38;;;6.88;;
76063;SDS011;64762;52.006;8.424;2023-07-09T12:22:49;12.13;;;6.65;;
76063;SDS011;64762;52.006;8.424;2023-07-09T12:25:19;16.17;;;6.23;;
76063;SDS011;64762;52.006;8.424;2023-07-09T12:27:47;12.57;;;6.47;;
76063;SDS011;64762;52.006;8.424;2023-07-09T12:30:12;11.97;;;6.40;;
76063;SDS011;64762;52.006;8.424;2023-07-09T12:32:47;12.23;;;5.85;;
76063;SDS011;64762;52.006;8.424;2023-07-09T12:35:20;11.57;;;6.75;;
76063;SDS011;64762;52.006;8.424;2023-07-09T12:37:46;13.68;;;6.63;;
76063;SDS011;64762;52.006;8.424;2023-07-09T12:40:13;11.82;;;6.65;;
76063;SDS011;64762;52.006;8.424;2023-07-09T12:42:41;12.38;;;6.55;;
76063;SDS011;64762;52.006;8.424;2023-07-09T12:45:40;11.95;;;6.43;;
76063;SDS011;64762;52.006;8.424;2023-07-09T12:47:59;10.55;;;5.65;;
76063;SDS011;64762;52.006;8.424;2023-07-09T12:50:32;14.50;;;5.93;;
76063;SDS011;64762;52.006;8.424;2023-07-09T12:53:02;11.48;;;5.55;;
76063;SDS011;64762;52.006;8.424;2023-07-09T12:55:38;11.45;;;5.88;;
76063;SDS011;64762;52.006;8.424;2023-07-09T12:58:07;14.60;;;6.50;;
76063;SDS011;64762;52.006;8.424;2023-07-09T13:00:35;12.25;;;5.95;;
76063;SDS011;64762;52.006;8.424;2023-07-09T13:03:01;11.33;;;5.70;;
76063;SDS011;64762;52.006;8.424;2023-07-09T13:05:27;9.57;;;5.97;;
76063;SDS011;64762;52.006;8.424;2023-07-09T13:07:53;11.35;;;5.47;;
76063;SDS011;64762;52.006;8.424;2023-07-09T13:10:26;8.15;;;4.70;;
76063;SDS011;64762;52.006;8.424;2023-07-09T13:13:03;11.00;;;4.68;;
76063;SDS011;64762;52.006;8.424;2023-07-09T13:18:13;8.93;;;5.15;;
76063;SDS011;64762;52.006;8.424;2023-07-09T13:20:40;10.90;;;5.35;;
76063;SDS011;64762;52.006;8.424;2023-07-09T13:23:15;13.63;;;5.10;;
76063;SDS011;64762;52.006;8.424;2023-07-09T13:25:41;10.73;;;5.65;;
76063;SDS011;64762;52.006;8.424;2023-07-09T13:28:14;12.05;;;5.78;;
76063;SDS011;64762;52.006;8.424;2023-07-09T13:30:50;10.23;;;5.38;;
76063;SDS011;64762;52.006;8.424;2023-07-09T13:33:17;12.23;;;5.10;;
76063;SDS011;64762;52.006;8.424;2023-07-09T13:35:43;8.07;;;4.97;;
76063;SDS011;64762;52.006;8.424;2023-07-09T13:38:16;12.73;;;5.20;;
76063;SDS011;64762;52.006;8.424;2023-07-09T13:40:43;11.43;;;5.78;;
76063;SDS011;64762;52.006;8.424;2023-07-09T13:43:11;11.32;;;6.28;;
76063;SDS011;64762;52.006;8.424;2023-07-09T13:45:56;11.27;;;4.90;;
76063;SDS011;64762;52.006;8.424;2023-07-09T13:48:22;11.00;;;5.03;;
76063;SDS011;64762;52.006;8.424;2023-07-09T13:50:48;9.02;;;4.68;;
76063;SDS011;64762;52.006;8.424;2023-07-09T13:53:19;8.50;;;5.07;;
76063;SDS011;64762;52.006;8.424;2023-07-09T13:55:47;17.40;;;5.25;;
76063;SDS011;64762;52.006;8.424;2023-07-09T13:58:15;11.60;;;5.45;;
76063;SDS011;64762;52.006;8.424;2023-07-09T14:00:42;10.07;;;5.25;;
76063;SDS011;64762;52.006;8.424;2023-07-09T14:03:15;14.80;;;5.10;;
76063;SDS011;64762;52.006;8.424;2023-07-09T14:05:43;12.75;;;4.82;;
76063;SDS011;64762;52.006;8.424;2023-07-09T14:08:09;10.77;;;4.82;;
76063;SDS011;64762;52.006;8.424;2023-07-09T14:10:35;12.50;;;5.32;;
76063;SDS011;64762;52.006;8.424;2023-07-09T14:13:01;9.00;;;4.93;;
76063;SDS011;64762;52.006;8.424;2023-07-09T14:15:27;13.15;;;5.50;;
76063;SDS011;64762;52.006;8.424;2023-07-09T14:17:53;11.85;;;5.32;;
76063;SDS011;64762;52.006;8.424;2023-07-09T14:20:20;13.38;;;5.93;;
76063;SDS011;64762;52.006;8.424;2023-07-09T14:22:46;12.48;;;5.95;;
76063;SDS011;64762;52.006;8.424;2023-07-09T14:25:18;14.80;;;5.15;;
76063;SDS011;64762;52.006;8.424;2023-07-09T14:27:52;13.77;;;4.70;;
76063;SDS011;64762;52.006;8.424;2023-07-09T14:30:18;12.35;;;5.68;;
76063;SDS011;64762;52.006;8.424;2023-07-09T14:32:46;9.57;;;5.25;;
76063;SDS011;64762;52.006;8.424;2023-07-09T14:35:17;11.82;;;5.68;;
76063;SDS011;64762;52.006;8.424;2023-07-09T14:37:44;11.48;;;5.70;;
76063;SDS011;64762;52.006;8.424;2023-07-09T14:40:11;11.75;;;5.72;;
76063;SDS011;64762;52.006;8.424;2023-07-09T14:42:37;11.75;;;5.47;;
76063;SDS011;64762;52.006;8.424;2023-07-09T14:45:04;15.27;;;5.93;;
76063;SDS011;64762;52.006;8.424;2023-07-09T14:47:34;12.27;;;5.88;;
76063;SDS011;64762;52.006;8.424;2023-07-09T14:50:00;14.45;;;5.90;;
76063;SDS011;64762;52.006;8.424;2023-07-09T14:52:25;13.00;;;6.00;;
76063;SDS011;64762;52.006;8.424;2023-07-09T14:54:50;10.87;;;5.40;;
76063;SDS011;64762;52.006;8.424;2023-07-09T14:57:25;14.35;;;5.88;;
76063;SDS011;64762;52.006;8.424;2023-07-09T14:59:51;9.70;;;5.30;;
76063;SDS011;64762;52.006;8.424;2023-07-09T15:02:20;13.35;;;5.50;;
76063;SDS011;64762;52.006;8.424;2023-07-09T15:04:47;15.30;;;5.70;;
76063;SDS011;64762;52.006;8.424;2023-07-09T15:07:12;13.18;;;6.15;;
76063;SDS011;64762;52.006;8.424;2023-07-09T15:09:39;11.13;;;6.65;;
76063;SDS011;64762;52.006;8.424;2023-07-09T15:12:04;12.97;;;6.27;;
76063;SDS011;64762;52.006;8.424;2023-07-09T15:14:30;12.35;;;6.03;;
76063;SDS011;64762;52.006;8.424;2023-07-09T15:16:55;9.23;;;5.57;;
76063;SDS011;64762;52.006;8.424;2023-07-09T15:19:21;11.57;;;5.73;;
76063;SDS011;64762;52.006;8.424;2023-07-09T15:21:47;17.52;;;6.60;;
76063;SDS011;64762;52.006;8.424;2023-07-09T15:24:30;11.55;;;5.60;;